createdAt,value
2022-09-16T00:01:35.916Z,20.70
2022-09-16T00:03:37.360Z,20.69
2022-09-16T00:05:40.047Z,20.67
2022-09-16T00:07:41.348Z,20.66
2022-09-16T00:09:42.680Z,20.65
2022-09-16T00:11:44.001Z,20.65
2022-09-16T00:13:45.311Z,20.64
2022-09-16T00:15:46.650Z,20.64
2022-09-16T00:17:47.985Z,20.63
2022-09-16T00:19:50.565Z,20.63
2022-09-16T00:21:51.871Z,20.63
2022-09-16T00:23:53.175Z,20.62
2022-09-16T00:25:54.516Z,20.61
2022-09-16T00:27:55.867Z,20.60
2022-09-16T00:29:57.185Z,20.58
2022-09-16T00:31:58.453Z,20.60
2022-09-16T00:33:59.735Z,20.58
2022-09-16T00:36:01.001Z,20.58
2022-09-16T00:38:02.305Z,20.59
2022-09-16T00:40:03.681Z,20.57
2022-09-16T00:42:05.059Z,20.60
2022-09-16T00:44:06.330Z,20.62
2022-09-16T00:46:07.700Z,20.65
2022-09-16T00:48:09.604Z,20.72
2022-09-16T00:50:10.913Z,20.63
2022-09-16T00:52:12.181Z,20.63
2022-09-16T00:54:13.448Z,20.62
2022-09-16T00:56:14.725Z,20.58
2022-09-16T00:58:16.032Z,20.56
2022-09-16T01:00:17.828Z,20.54
2022-09-16T01:02:19.151Z,20.54
2022-09-16T01:04:20.479Z,20.50
2022-09-16T01:06:21.739Z,20.51
2022-09-16T01:08:23.066Z,20.50
2022-09-16T01:10:24.409Z,20.50
2022-09-16T01:12:25.902Z,20.51
2022-09-16T01:14:45.726Z,20.51
2022-09-16T01:16:47.008Z,20.51
2022-09-16T01:18:48.280Z,20.50
2022-09-16T01:20:49.596Z,20.51
2022-09-16T01:22:50.872Z,20.58
2022-09-16T01:24:52.179Z,20.62
2022-09-16T01:26:53.439Z,20.63
2022-09-16T01:28:54.742Z,20.64
2022-09-16T01:30:56.201Z,20.63
2022-09-16T01:32:57.594Z,20.62
2022-09-16T01:34:58.947Z,20.62
2022-09-16T01:37:00.304Z,19.83
2022-09-16T01:39:01.605Z,20.63
2022-09-16T01:41:02.930Z,20.63
2022-09-16T01:43:04.287Z,20.63
2022-09-16T01:45:05.582Z,20.63
2022-09-16T01:47:06.846Z,20.62
2022-09-16T01:49:08.112Z,20.61
2022-09-16T01:51:09.399Z,20.68
2022-09-16T01:53:10.683Z,20.70
2022-09-16T01:55:11.983Z,20.70
2022-09-16T01:57:13.498Z,20.70
2022-09-16T01:59:15.112Z,20.69
2022-09-16T02:01:16.481Z,20.68
2022-09-16T02:03:17.782Z,20.68
2022-09-16T02:05:19.079Z,20.67
2022-09-16T02:07:20.603Z,20.64
2022-09-16T02:09:21.861Z,20.63
2022-09-16T02:11:23.159Z,20.62
2022-09-16T02:13:24.483Z,20.62
2022-09-16T02:15:25.799Z,20.61
2022-09-16T02:17:27.076Z,20.60
2022-09-16T02:19:28.351Z,20.61
2022-09-16T02:21:29.622Z,20.60
2022-09-16T02:23:33.236Z,20.61
2022-09-16T02:25:34.595Z,20.61
2022-09-16T02:27:35.898Z,20.60
2022-09-16T02:29:37.191Z,20.57
2022-09-16T02:31:38.530Z,20.57
2022-09-16T02:33:39.811Z,20.54
2022-09-16T02:35:41.102Z,20.53
2022-09-16T02:37:42.453Z,20.52
2022-09-16T02:39:45.010Z,20.50
2022-09-16T02:41:47.134Z,20.49
2022-09-16T02:43:48.399Z,20.49
2022-09-16T02:45:49.723Z,20.47
2022-09-16T02:47:51.003Z,20.44
2022-09-16T02:49:52.267Z,20.42
2022-09-16T02:51:53.771Z,20.42
2022-09-16T02:53:55.139Z,20.40
2022-09-16T02:55:56.437Z,20.39
2022-09-16T02:57:57.702Z,20.38
2022-09-16T02:59:59.003Z,20.38
2022-09-16T03:02:01.274Z,20.36
2022-09-16T03:04:02.712Z,20.38
2022-09-16T03:06:04.117Z,20.36
2022-09-16T03:08:07.271Z,20.36
2022-09-16T03:10:09.001Z,20.40
2022-09-16T03:12:10.299Z,20.40
2022-09-16T03:14:11.570Z,20.39
2022-09-16T03:16:13.387Z,20.42
2022-09-16T03:18:14.756Z,20.50
2022-09-16T03:20:16.015Z,20.49
2022-09-16T03:22:17.286Z,20.50
2022-09-16T03:24:18.563Z,20.52
2022-09-16T03:26:19.858Z,20.56
2022-09-16T03:28:21.515Z,20.57
2022-09-16T03:30:22.810Z,20.56
2022-09-16T03:32:24.134Z,20.55
2022-09-16T03:34:25.399Z,20.55
2022-09-16T03:36:26.667Z,20.54
2022-09-16T03:38:28.482Z,20.55
2022-09-16T03:40:29.954Z,20.54
2022-09-16T03:42:31.366Z,20.53
2022-09-16T03:44:32.659Z,20.53
2022-09-16T03:46:34.046Z,20.52
2022-09-16T03:48:35.367Z,20.52
2022-09-16T03:50:36.687Z,20.50
2022-09-16T03:52:38.022Z,20.52
2022-09-16T03:54:39.298Z,20.48
2022-09-16T03:56:40.563Z,20.42
2022-09-16T03:58:41.840Z,20.42
2022-09-16T04:00:43.109Z,20.40
2022-09-16T04:02:44.541Z,20.38
2022-09-16T04:04:46.123Z,20.36
2022-09-16T04:06:47.596Z,20.35
2022-09-16T04:08:50.681Z,20.35
2022-09-16T04:10:51.941Z,20.35
2022-09-16T04:12:53.554Z,20.34
2022-09-16T04:14:54.923Z,20.34
2022-09-16T04:16:56.261Z,20.32
2022-09-16T04:18:57.569Z,20.29
2022-09-16T04:20:58.875Z,20.28
2022-09-16T04:23:00.191Z,20.28
2022-09-16T04:25:01.810Z,19.76
2022-09-16T04:27:03.078Z,20.26
2022-09-16T04:29:04.344Z,20.26
2022-09-16T04:31:05.728Z,20.26
2022-09-16T04:33:07.074Z,20.31
2022-09-16T04:35:08.353Z,20.40
2022-09-16T04:37:09.647Z,20.41
2022-09-16T04:39:12.227Z,20.43
2022-09-16T04:41:13.509Z,20.43
2022-09-16T04:43:15.107Z,20.45
2022-09-16T04:45:16.458Z,20.44
2022-09-16T04:47:17.727Z,20.45
2022-09-16T04:49:19.002Z,20.44
2022-09-16T04:51:20.336Z,20.46
2022-09-16T04:53:21.666Z,20.46
2022-09-16T04:55:23.270Z,20.46
2022-09-16T04:57:24.558Z,20.41
2022-09-16T04:59:25.901Z,20.39
2022-09-16T05:01:27.382Z,20.38
2022-09-16T05:03:28.813Z,20.36
2022-09-16T05:05:30.171Z,20.38
2022-09-16T05:07:31.435Z,20.38
2022-09-16T05:09:32.760Z,20.22
2022-09-16T05:11:34.068Z,20.11
2022-09-16T05:13:35.395Z,20.20
2022-09-16T05:15:36.755Z,20.21
2022-09-16T05:17:50.959Z,20.19
2022-09-16T05:19:52.907Z,20.18
2022-09-16T05:21:54.174Z,20.19
2022-09-16T05:23:56.073Z,20.18
2022-09-16T05:25:57.434Z,20.17
2022-09-16T05:27:58.752Z,20.17
2022-09-16T05:30:00.130Z,20.19
2022-09-16T05:32:01.431Z,19.32
2022-09-16T05:34:02.726Z,20.17
2022-09-16T05:36:03.988Z,20.14
2022-09-16T05:38:05.276Z,20.13
2022-09-16T05:40:06.656Z,20.14
2022-09-16T05:42:07.927Z,20.14
2022-09-16T05:44:09.203Z,20.14
2022-09-16T05:46:11.142Z,20.14
2022-09-16T05:48:12.438Z,20.14
2022-09-16T05:50:13.700Z,20.13
2022-09-16T05:52:14.983Z,20.14
2022-09-16T05:54:18.341Z,20.15
2022-09-16T05:56:19.715Z,20.23
2022-09-16T05:58:21.022Z,20.32
2022-09-16T06:00:22.983Z,20.36
2022-09-16T06:02:24.901Z,20.29
2022-09-16T06:04:26.239Z,20.29
2022-09-16T06:06:27.505Z,20.55
2022-09-16T06:08:28.960Z,20.45
2022-09-16T06:10:30.406Z,20.32
2022-09-16T06:12:31.687Z,20.20
2022-09-16T06:14:32.987Z,20.12
2022-09-16T06:16:34.450Z,20.07
2022-09-16T06:18:36.651Z,19.17
2022-09-16T06:20:37.918Z,20.01
2022-09-16T06:22:40.020Z,20.00
2022-09-16T06:24:41.521Z,19.98
2022-09-16T06:26:42.774Z,19.95
2022-09-16T06:28:44.279Z,19.93
2022-09-16T06:30:45.706Z,19.91
2022-09-16T06:32:47.027Z,19.91
2022-09-16T06:34:48.323Z,19.90
2022-09-16T06:36:49.671Z,19.89
2022-09-16T06:38:51.269Z,19.89
2022-09-16T06:40:52.587Z,19.88
2022-09-16T06:42:58.330Z,19.85
2022-09-16T06:45:03.173Z,19.85
2022-09-16T06:47:04.494Z,19.85
2022-09-16T06:49:06.712Z,19.83
2022-09-16T06:51:08.219Z,19.84
2022-09-16T06:53:09.501Z,19.82
2022-09-16T06:55:10.781Z,19.82
2022-09-16T06:57:12.464Z,19.80
2022-09-16T06:59:14.455Z,19.79
2022-09-16T07:01:15.803Z,19.78
2022-09-16T07:03:17.120Z,19.77
2022-09-16T07:05:18.598Z,19.78
2022-09-16T07:07:19.871Z,19.77
2022-09-16T07:09:21.195Z,19.77
2022-09-16T07:11:22.478Z,19.76
2022-09-16T07:13:23.779Z,19.74
2022-09-16T07:15:25.043Z,19.75
2022-09-16T07:17:27.341Z,19.74
2022-09-16T07:19:28.683Z,19.72
2022-09-16T07:21:30.535Z,19.72
2022-09-16T07:23:32.393Z,19.73
2022-09-16T07:25:35.836Z,19.72
2022-09-16T07:27:37.714Z,19.71
2022-09-16T07:29:39.038Z,19.70
2022-09-16T07:31:40.343Z,19.71
2022-09-16T07:33:41.671Z,19.70
2022-09-16T07:35:42.964Z,19.69
2022-09-16T07:37:44.239Z,19.69
2022-09-16T07:39:45.987Z,19.69
2022-09-16T07:41:48.718Z,19.68
2022-09-16T07:43:50.723Z,19.69
2022-09-16T07:45:52.075Z,19.70
2022-09-16T07:47:53.408Z,19.71
2022-09-16T07:49:56.158Z,19.71
2022-09-16T07:51:57.487Z,19.71
2022-09-16T07:53:59.445Z,19.70
2022-09-16T07:56:00.735Z,19.71
2022-09-16T07:58:02.073Z,19.71
2022-09-16T08:00:03.386Z,19.72
2022-09-16T08:02:05.326Z,19.73
2022-09-16T08:04:06.770Z,19.72
2022-09-16T08:06:08.075Z,19.72
2022-09-16T08:08:09.585Z,19.71
2022-09-16T08:10:11.059Z,19.71
2022-09-16T08:12:14.578Z,19.68
2022-09-16T08:14:15.883Z,19.68
2022-09-16T08:16:17.195Z,19.66
2022-09-16T08:18:18.510Z,19.67
2022-09-16T08:20:20.200Z,19.67
2022-09-16T08:22:23.482Z,19.66
2022-09-16T08:24:24.803Z,19.65
2022-09-16T08:26:26.203Z,19.62
2022-09-16T08:28:35.841Z,19.61
2022-09-16T08:30:51.264Z,19.61
2022-09-16T08:32:54.422Z,19.59
2022-09-16T08:34:56.004Z,19.58
2022-09-16T08:36:57.305Z,19.59
2022-09-16T08:38:58.774Z,19.58
2022-09-16T08:41:00.108Z,19.58
2022-09-16T08:43:01.509Z,19.58
2022-09-16T08:45:02.846Z,19.58
2022-09-16T08:47:04.112Z,19.60
2022-09-16T08:49:05.438Z,19.59
2022-09-16T08:51:08.050Z,19.59
2022-09-16T08:53:09.399Z,19.59
2022-09-16T08:55:10.874Z,19.58
2022-09-16T08:57:12.265Z,19.56
2022-09-16T08:59:13.556Z,19.55
2022-09-16T09:01:14.887Z,19.54
2022-09-16T09:03:16.238Z,19.53
2022-09-16T09:05:18.012Z,19.55
2022-09-16T09:07:19.318Z,19.54
2022-09-16T09:09:20.594Z,19.53
2022-09-16T09:11:21.934Z,19.51
2022-09-16T09:13:24.149Z,19.50
2022-09-16T09:15:28.249Z,19.49
2022-09-16T09:17:29.769Z,19.49
2022-09-16T09:19:31.512Z,19.54
2022-09-16T09:21:32.788Z,19.60
2022-09-16T09:23:34.096Z,19.66
2022-09-16T09:25:35.433Z,19.69
2022-09-16T09:29:38.030Z,19.67
2022-09-16T09:31:41.029Z,19.67
2022-09-16T09:33:46.569Z,19.68
2022-09-16T09:35:50.027Z,19.66
2022-09-16T09:37:51.296Z,18.77
2022-09-16T09:39:52.664Z,18.77
2022-09-16T09:41:53.992Z,19.58
2022-09-16T09:43:55.266Z,19.55
2022-09-16T09:45:56.756Z,19.54
2022-09-16T09:47:58.084Z,19.52
2022-09-16T09:49:59.384Z,19.50
2022-09-16T09:52:00.729Z,19.49
2022-09-16T09:54:02.235Z,19.49
2022-09-16T09:56:03.492Z,19.48
2022-09-16T09:58:05.413Z,19.48
2022-09-16T10:00:11.144Z,19.45
2022-09-16T10:02:12.462Z,19.45
2022-09-16T10:04:13.835Z,19.44
2022-09-16T10:06:15.583Z,19.42
2022-09-16T10:08:16.968Z,19.41
2022-09-16T10:10:18.543Z,19.41
2022-09-16T10:12:19.857Z,19.42
2022-09-16T10:14:21.135Z,19.50
2022-09-16T10:16:22.688Z,19.58
2022-09-16T10:18:24.112Z,19.64
2022-09-16T10:20:25.404Z,19.68
2022-09-16T10:22:26.865Z,19.71
2022-09-16T10:24:28.275Z,19.74
2022-09-16T10:26:29.575Z,19.76
2022-09-16T10:28:30.952Z,19.78
2022-09-16T10:30:32.928Z,19.79
2022-09-16T10:32:34.228Z,19.75
2022-09-16T10:34:35.553Z,19.69
2022-09-16T10:36:36.847Z,19.66
2022-09-16T10:38:38.279Z,19.62
2022-09-16T10:40:39.563Z,19.62
2022-09-16T10:42:40.850Z,19.69
2022-09-16T10:44:42.172Z,19.73
2022-09-16T10:46:43.474Z,19.75
2022-09-16T10:48:44.880Z,19.76
2022-09-16T10:50:46.228Z,19.70
2022-09-16T10:52:47.572Z,19.68
2022-09-16T10:54:48.873Z,19.65
2022-09-16T10:56:50.185Z,19.61
2022-09-16T10:58:51.496Z,19.59
2022-09-16T11:00:52.907Z,19.58
2022-09-16T11:02:54.268Z,19.57
2022-09-16T11:04:55.591Z,19.55
2022-09-16T11:06:56.868Z,19.54
2022-09-16T11:08:58.144Z,19.52
2022-09-16T11:11:00.478Z,19.50
2022-09-16T11:13:01.779Z,19.50
2022-09-16T11:15:03.068Z,19.48
2022-09-16T11:17:05.537Z,19.47
2022-09-16T11:19:06.911Z,19.45
2022-09-16T11:21:08.186Z,19.44
2022-09-16T11:23:09.555Z,19.43
2022-09-16T11:25:10.876Z,19.41
2022-09-16T11:27:12.151Z,19.40
2022-09-16T11:29:13.426Z,19.39
2022-09-16T11:31:14.786Z,19.39
2022-09-16T11:33:16.655Z,19.37
2022-09-16T11:35:18.605Z,19.37
2022-09-16T11:37:19.887Z,19.38
2022-09-16T11:39:21.181Z,19.43
2022-09-16T11:41:22.515Z,19.46
2022-09-16T11:43:23.778Z,19.50
2022-09-16T11:45:25.279Z,19.39
2022-09-16T11:47:26.656Z,19.80
2022-09-16T11:49:28.702Z,21.24
2022-09-16T11:51:30.099Z,21.43
2022-09-16T11:53:34.171Z,21.88
2022-09-16T11:55:37.120Z,22.06
2022-09-16T11:57:38.408Z,21.84
2022-09-16T11:59:39.776Z,21.64
2022-09-16T12:01:41.169Z,22.13
2022-09-16T12:03:42.509Z,22.00
2022-09-16T12:05:43.975Z,22.03
2022-09-16T12:07:45.335Z,21.94
2022-09-16T12:09:46.696Z,21.48
2022-09-16T12:11:48.087Z,21.52
2022-09-16T12:13:49.418Z,21.47
2022-09-16T12:15:51.180Z,21.00
2022-09-16T12:17:52.474Z,20.83
2022-09-16T12:19:53.741Z,20.76
2022-09-16T12:21:57.898Z,20.82
2022-09-16T12:23:59.637Z,20.84
2022-09-16T12:26:00.963Z,20.90
2022-09-16T12:28:02.272Z,20.89
2022-09-16T12:30:03.588Z,21.49
2022-09-16T12:32:05.260Z,21.89
2022-09-16T12:34:06.580Z,22.33
2022-09-16T12:36:07.924Z,22.29
2022-09-16T12:38:09.223Z,22.30
2022-09-16T12:40:10.672Z,22.39
2022-09-16T12:42:12.476Z,22.45
2022-09-16T12:44:30.548Z,22.38
2022-09-16T12:46:37.065Z,22.09
2022-09-16T12:48:38.454Z,22.04
2022-09-16T12:50:39.760Z,22.27
2022-09-16T12:52:41.178Z,22.37
2022-09-16T12:55:03.967Z,22.50
2022-09-16T12:57:04.772Z,22.27
2022-09-16T12:59:06.207Z,22.08
2022-09-16T13:01:07.522Z,22.01
2022-09-16T13:03:08.857Z,22.06
2022-09-16T13:05:10.227Z,22.07
2022-09-16T13:07:11.532Z,22.31
2022-09-16T13:09:12.831Z,22.19
2022-09-16T13:12:00.559Z,21.17
2022-09-16T13:13:35.462Z,21.95
2022-09-16T13:15:36.898Z,22.44
2022-09-16T13:17:38.215Z,21.84
2022-09-16T13:19:39.486Z,21.74
2022-09-16T13:21:40.780Z,21.70
2022-09-16T13:23:42.092Z,21.70
2022-09-16T13:25:43.409Z,21.54
2022-09-16T13:27:44.729Z,21.39
2022-09-16T13:29:46.011Z,21.28
2022-09-16T13:31:47.580Z,21.23
2022-09-16T13:33:49.055Z,21.19
2022-09-16T13:35:50.376Z,21.14
2022-09-16T13:37:51.774Z,21.15
2022-09-16T13:39:53.108Z,21.15
2022-09-16T13:41:54.591Z,21.14
2022-09-16T13:43:55.853Z,21.27
2022-09-16T13:45:57.217Z,21.25
2022-09-16T13:47:58.498Z,21.20
2022-09-16T13:49:59.760Z,21.17
2022-09-16T13:52:01.038Z,21.17
2022-09-16T13:54:04.549Z,21.24
2022-09-16T13:56:05.991Z,21.34
2022-09-16T13:58:07.259Z,21.45
2022-09-16T14:00:09.499Z,21.53
2022-09-16T14:02:11.029Z,21.57
2022-09-16T14:04:12.346Z,21.61
2022-09-16T14:06:13.664Z,21.64
2022-09-16T14:08:14.929Z,21.64
2022-09-16T14:10:16.204Z,21.67
2022-09-16T14:12:17.538Z,21.69
2022-09-16T14:14:43.239Z,21.61
2022-09-16T14:16:40.151Z,21.44
2022-09-16T14:18:41.478Z,21.36
2022-09-16T14:20:42.735Z,21.31
2022-09-16T14:22:46.932Z,20.41
2022-09-16T14:24:52.956Z,21.18
2022-09-16T14:27:02.215Z,21.12
2022-09-16T14:29:03.610Z,21.08
2022-09-16T14:31:04.955Z,21.04
2022-09-16T14:33:06.254Z,21.02
2022-09-16T14:35:07.539Z,21.00
2022-09-16T14:37:08.825Z,20.98
2022-09-16T14:39:10.781Z,20.93
2022-09-16T14:41:12.161Z,20.93
2022-09-16T14:43:13.755Z,20.89
2022-09-16T14:45:16.866Z,20.86
2022-09-16T14:47:29.466Z,20.85
2022-09-16T14:49:32.373Z,20.87
2022-09-16T14:51:35.685Z,21.02
2022-09-16T14:53:38.351Z,21.09
2022-09-16T14:55:40.394Z,21.09
2022-09-16T14:57:41.674Z,21.57
2022-09-16T14:59:43.005Z,22.02
2022-09-16T15:01:44.336Z,22.30
2022-09-16T15:03:45.805Z,22.16
2022-09-16T15:05:47.147Z,22.08
2022-09-16T15:08:12.134Z,21.94
2022-09-16T15:10:09.902Z,21.95
2022-09-16T15:12:11.164Z,21.86
2022-09-16T15:14:12.426Z,21.89
2022-09-16T15:16:13.983Z,21.91
2022-09-16T15:18:15.279Z,22.26
2022-09-16T15:20:17.303Z,22.43
2022-09-16T15:22:18.584Z,22.68
2022-09-16T15:24:19.859Z,22.62
2022-09-16T15:26:22.903Z,22.35
2022-09-16T15:28:24.223Z,22.27
2022-09-16T15:30:25.655Z,22.21
2022-09-16T15:32:28.498Z,22.47
2022-09-16T15:34:30.073Z,22.51
2022-09-16T15:36:31.346Z,22.93
2022-09-16T15:38:32.831Z,22.62
2022-09-16T15:40:35.761Z,22.89
2022-09-16T15:42:37.135Z,22.75
2022-09-16T15:44:38.552Z,22.93
2022-09-16T15:46:39.896Z,22.64
2022-09-16T15:48:41.378Z,22.87
2022-09-16T15:50:42.684Z,22.76
2022-09-16T15:52:44.056Z,22.60
2022-09-16T15:54:45.434Z,22.45
2022-09-16T15:56:46.712Z,22.41
2022-09-16T15:58:48.083Z,22.32
2022-09-16T16:00:49.606Z,21.90
2022-09-16T16:02:51.741Z,21.82
2022-09-16T16:04:53.086Z,21.63
2022-09-16T16:06:54.602Z,21.45
2022-09-16T16:08:58.135Z,21.35
2022-09-16T16:10:59.448Z,21.28
2022-09-16T16:13:00.966Z,21.24
2022-09-16T16:15:02.279Z,21.18
2022-09-16T16:17:18.816Z,21.11
2022-09-16T16:19:20.122Z,21.04
2022-09-16T16:21:21.922Z,21.01
2022-09-16T16:23:23.219Z,20.97
2022-09-16T16:25:24.490Z,20.94
2022-09-16T16:27:25.763Z,20.90
2022-09-16T16:29:27.109Z,20.89
2022-09-16T16:31:28.440Z,20.86
2022-09-16T16:33:29.781Z,20.83
2022-09-16T16:35:31.042Z,20.81
2022-09-16T16:37:47.928Z,20.78
2022-09-16T16:39:49.258Z,20.78
2022-09-16T16:41:50.614Z,20.77
2022-09-16T16:43:51.895Z,20.74
2022-09-16T16:45:53.187Z,20.73
2022-09-16T16:47:54.519Z,19.88
2022-09-16T16:49:55.780Z,20.69
2022-09-16T16:51:57.926Z,20.66
2022-09-16T16:53:59.276Z,20.66
2022-09-16T16:56:00.620Z,20.65
2022-09-16T16:58:01.891Z,20.63
2022-09-16T17:00:03.190Z,20.62
2022-09-16T17:02:04.757Z,20.60
2022-09-16T17:04:06.115Z,20.58
2022-09-16T17:06:07.610Z,20.55
2022-09-16T17:08:09.561Z,20.55
2022-09-16T17:10:11.238Z,20.91
2022-09-16T17:12:13.790Z,21.06
2022-09-16T17:14:15.834Z,21.13
2022-09-16T17:16:17.351Z,21.37
2022-09-16T17:18:18.692Z,21.31
2022-09-16T17:20:20.019Z,21.27
2022-09-16T17:22:21.347Z,21.26
2022-09-16T17:24:22.675Z,21.31
2022-09-16T17:26:24.123Z,21.36
2022-09-16T17:28:25.789Z,21.10
2022-09-16T17:30:27.071Z,20.89
2022-09-16T17:32:28.347Z,20.76
2022-09-16T17:34:30.138Z,20.70
2022-09-16T17:36:31.586Z,20.67
2022-09-16T17:38:32.919Z,20.64
2022-09-16T17:40:34.671Z,20.60
2022-09-16T17:42:36.061Z,20.58
2022-09-16T17:44:37.337Z,20.56
2022-09-16T17:46:38.707Z,20.56
2022-09-16T17:48:40.089Z,20.54
2022-09-16T17:50:41.370Z,20.53
2022-09-16T17:52:42.851Z,20.50
2022-09-16T17:54:44.358Z,20.49
2022-09-16T17:56:45.688Z,20.47
2022-09-16T17:58:47.247Z,20.46
2022-09-16T18:00:48.555Z,20.44
2022-09-16T18:02:49.903Z,20.43
2022-09-16T18:04:51.725Z,20.42
2022-09-16T18:06:53.083Z,20.43
2022-09-16T18:08:54.383Z,20.41
2022-09-16T18:10:55.710Z,20.42
2022-09-16T18:13:00.093Z,20.41
2022-09-16T18:15:01.743Z,20.38
2022-09-16T18:17:03.473Z,20.38
2022-09-16T18:19:05.123Z,20.38
2022-09-16T18:21:06.450Z,20.37
2022-09-16T18:23:07.774Z,20.35
2022-09-16T18:25:09.339Z,20.34
2022-09-16T18:27:10.599Z,20.42
2022-09-16T18:29:12.306Z,20.70
2022-09-16T18:31:14.266Z,20.84
2022-09-16T18:33:15.711Z,20.98
2022-09-16T18:35:16.978Z,21.47
2022-09-16T18:37:18.296Z,21.38
2022-09-16T18:39:19.559Z,21.30
2022-09-16T18:41:21.513Z,21.26
2022-09-16T18:43:22.869Z,21.32
2022-09-16T18:45:24.148Z,21.32
2022-09-16T18:47:25.461Z,21.62
2022-09-16T18:49:28.024Z,21.54
2022-09-16T18:51:29.296Z,21.48
2022-09-16T18:53:30.929Z,21.46
2022-09-16T18:55:32.243Z,21.46
2022-09-16T18:57:33.732Z,21.55
2022-09-16T18:59:36.657Z,21.63
2022-09-16T19:01:38.147Z,21.55
2022-09-16T19:03:39.532Z,21.97
2022-09-16T19:05:40.828Z,21.82
2022-09-16T19:07:42.124Z,21.60
2022-09-16T19:09:45.424Z,21.52
2022-09-16T19:11:46.915Z,21.46
2022-09-16T19:13:48.311Z,21.45
2022-09-16T19:15:50.351Z,21.48
2022-09-16T19:17:51.799Z,21.49
2022-09-16T19:19:53.163Z,21.46
2022-09-16T19:21:54.488Z,21.58
2022-09-16T19:23:56.799Z,21.54
2022-09-16T19:26:00.947Z,21.62
2022-09-16T19:28:02.261Z,21.58
2022-09-16T19:30:03.566Z,21.47
2022-09-16T19:32:05.337Z,21.14
2022-09-16T19:34:06.814Z,21.05
2022-09-16T19:36:08.095Z,21.20
2022-09-16T19:38:09.582Z,21.29
2022-09-16T19:40:11.781Z,21.37
2022-09-16T19:42:13.119Z,21.36
2022-09-16T19:44:14.391Z,21.33
2022-09-16T19:46:15.692Z,21.44
2022-09-16T19:48:17.160Z,21.45
2022-09-16T19:50:18.458Z,21.47
2022-09-16T19:52:19.768Z,21.40
2022-09-16T19:54:23.992Z,21.41
2022-09-16T19:56:25.299Z,21.47
2022-09-16T19:58:26.731Z,21.48
2022-09-16T20:00:41.511Z,21.46
2022-09-16T20:02:49.925Z,21.45
2022-09-16T20:04:51.278Z,21.46
2022-09-16T20:06:52.538Z,21.42
2022-09-16T20:08:53.863Z,21.40
2022-09-16T20:10:55.380Z,21.39
2022-09-16T20:12:59.388Z,21.43
2022-09-16T20:15:01.318Z,21.67
2022-09-16T20:17:02.940Z,21.18
2022-09-16T20:19:04.292Z,21.43
2022-09-16T20:21:05.648Z,21.48
2022-09-16T20:23:07.545Z,21.52
2022-09-16T20:25:22.553Z,21.58
2022-09-16T20:27:24.861Z,21.53
2022-09-16T20:29:26.377Z,21.77
2022-09-16T20:31:27.654Z,21.69
2022-09-16T20:33:33.122Z,21.59
2022-09-16T20:35:34.817Z,21.54
2022-09-16T20:37:36.107Z,21.54
2022-09-16T20:39:37.413Z,21.51
2022-09-16T20:41:38.807Z,21.54
2022-09-16T20:43:40.097Z,21.53
2022-09-16T20:45:41.490Z,21.50
2022-09-16T20:47:42.803Z,21.53
2022-09-16T20:49:44.291Z,21.50
2022-09-16T20:51:45.620Z,21.45
2022-09-16T20:53:46.951Z,21.46
2022-09-16T20:55:48.245Z,21.80
2022-09-16T20:57:49.520Z,21.31
2022-09-16T20:59:51.049Z,21.35
2022-09-16T21:01:52.405Z,21.35
2022-09-16T21:03:53.730Z,21.36
2022-09-16T21:05:55.052Z,21.53
2022-09-16T21:07:56.331Z,21.46
2022-09-16T21:09:57.623Z,21.42
2022-09-16T21:11:58.902Z,21.39
2022-09-16T21:14:00.343Z,21.46
2022-09-16T21:16:01.782Z,21.58
2022-09-16T21:18:03.239Z,21.60
2022-09-16T21:20:04.707Z,21.57
2022-09-16T21:22:05.988Z,21.78
2022-09-16T21:24:07.287Z,21.31
2022-09-16T21:26:08.594Z,21.13
2022-09-16T21:28:09.984Z,21.13
2022-09-16T21:30:11.307Z,21.04
2022-09-16T21:32:12.595Z,20.96
2022-09-16T21:34:13.940Z,20.88
2022-09-16T21:36:15.214Z,20.85
2022-09-16T21:38:17.360Z,20.81
2022-09-16T21:40:23.502Z,20.76
2022-09-16T21:42:24.960Z,20.72
2022-09-16T21:44:26.650Z,20.69
2022-09-16T21:46:28.005Z,19.54
2022-09-16T21:48:31.356Z,20.66
2022-09-16T21:50:32.631Z,20.63
2022-09-16T21:52:33.891Z,20.62
2022-09-16T21:54:35.174Z,20.60
2022-09-16T21:56:36.464Z,20.60
2022-09-16T21:58:37.947Z,20.61
2022-09-16T22:00:39.321Z,20.60
2022-09-16T22:02:40.724Z,20.58
2022-09-16T22:04:42.022Z,20.57
2022-09-16T22:06:43.359Z,20.59
2022-09-16T22:08:48.730Z,20.60
2022-09-16T22:10:50.505Z,20.59
2022-09-16T22:12:51.820Z,20.57
2022-09-16T22:14:53.113Z,20.56
2022-09-16T22:16:54.390Z,20.54
2022-09-16T22:18:55.883Z,20.53
2022-09-16T22:20:58.644Z,20.58
2022-09-16T22:22:59.932Z,20.61
2022-09-16T22:25:01.230Z,20.61
2022-09-16T22:27:02.547Z,20.58
2022-09-16T22:29:03.892Z,20.57
2022-09-16T22:31:05.218Z,20.56
2022-09-16T22:33:06.563Z,20.55
2022-09-16T22:35:07.854Z,20.52
2022-09-16T22:37:09.289Z,20.52
2022-09-16T22:39:10.599Z,20.50
2022-09-16T22:41:11.931Z,20.51
2022-09-16T22:43:13.216Z,20.50
2022-09-16T22:45:14.483Z,20.49
2022-09-16T22:47:15.815Z,20.50
2022-09-16T22:49:17.102Z,20.49
2022-09-16T22:51:18.422Z,20.49
2022-09-16T22:53:19.729Z,20.47
2022-09-16T22:55:20.999Z,20.45
2022-09-16T22:57:22.277Z,20.47
2022-09-16T22:59:23.542Z,20.45
2022-09-16T23:01:24.918Z,20.44
2022-09-16T23:03:26.199Z,20.44
2022-09-16T23:05:27.905Z,20.43
2022-09-16T23:07:29.882Z,20.40
2022-09-16T23:09:31.203Z,20.40
2022-09-16T23:11:32.550Z,20.40
2022-09-16T23:13:33.923Z,20.41
2022-09-16T23:15:35.231Z,20.40
2022-09-16T23:17:36.498Z,20.38
2022-09-16T23:19:37.788Z,20.44
2022-09-16T23:21:39.067Z,20.44
2022-09-16T23:23:40.374Z,20.42
2022-09-16T23:25:41.743Z,20.40
2022-09-16T23:27:43.102Z,20.38
2022-09-16T23:29:44.428Z,20.38
2022-09-16T23:31:45.831Z,20.38
2022-09-16T23:33:47.206Z,20.38
2022-09-16T23:35:48.547Z,20.35
2022-09-16T23:37:49.831Z,20.35
2022-09-16T23:39:51.154Z,20.33
2022-09-16T23:41:52.473Z,20.32
2022-09-16T23:43:54.203Z,20.32
2022-09-16T23:45:55.857Z,20.32
2022-09-16T23:47:57.130Z,20.32
2022-09-16T23:49:58.467Z,20.32
2022-09-16T23:51:59.798Z,20.31
2022-09-16T23:54:01.159Z,20.31
2022-09-16T23:56:02.440Z,20.30
2022-09-16T23:58:03.772Z,20.31
